Portada
METAR-TAF:

METAR-TAF

Aeropuertos :

Bolzano, Italia

latitud: 46-28N, longitud: 011-20E, altitud: 262 m

Observación

El informe se hizo hace 23 minutos, a las 08:50 UTC
Viento 2 kt con dirección variable
Temperatura 5°C
Humedad 65%
Presión 1025 hPa
Visibilidad 10 km o más
sin nubes por debajo de 1500 m y sin presencia de cumulonimbus.

METAR: LIPB 070850Z VRB02KT CAVOK 05/M01 Q1025

Hora: 10:13 (09:13 UTC)

Pronóstico

El informe se hizo hace 4 horas y 13 minutos, a las 05:00 UTC
Pronóstico válido del 07 a las 06 UTC al 08 a las 06 UTC
Viento 5 kt con dirección variable
Visibilidad 10 km o más
sin nubes por debajo de 1500 m y sin presencia de cumulonimbus.

TAF: LIPB 070500Z 0706/0806 VRB05KT CAVOK

Observaciones y pronósticos meteorológicos de más de 4000 aeropuertos (mensajes METAR y TAF).

Los puntos amarillos y rojos representan las estaciones disponibles.

Ponga el ratón en el punto deseado para ver el nombre de la estación.

Haga clic para ver las observaciones y los pronósticos meteorológicos.

Para cambiar el mapa : haga clic en los botones verdes con una cruz de color negro para hacer un zoom, en el botón verde con un guión para alejar o en las flechas verdes para mapas adyacentes.


METAR-TAF: